sensor_id;sensor_type;location;lat;lon;timestamp;P1;durP1;ratioP1;P2;durP2;ratioP2
82028;SDS011;71590;52.216;13.448;2024-03-02T00:01:40;41.27;;;32.70;;
82028;SDS011;71590;52.216;13.448;2024-03-02T00:04:07;45.17;;;34.73;;
82028;SDS011;71590;52.216;13.448;2024-03-02T00:06:35;49.93;;;36.80;;
82028;SDS011;71590;52.216;13.448;2024-03-02T00:09:03;43.97;;;31.83;;
82028;SDS011;71590;52.216;13.448;2024-03-02T00:11:34;49.13;;;36.23;;
82028;SDS011;71590;52.216;13.448;2024-03-02T00:14:01;42.67;;;33.27;;
82028;SDS011;71590;52.216;13.448;2024-03-02T00:16:29;49.00;;;34.03;;
82028;SDS011;71590;52.216;13.448;2024-03-02T00:19:01;47.57;;;35.83;;
82028;SDS011;71590;52.216;13.448;2024-03-02T00:21:29;45.80;;;33.60;;
82028;SDS011;71590;52.216;13.448;2024-03-02T00:23:57;44.10;;;33.10;;
82028;SDS011;71590;52.216;13.448;2024-03-02T00:26:24;47.00;;;35.43;;
82028;SDS011;71590;52.216;13.448;2024-03-02T00:28:52;37.77;;;31.73;;
82028;SDS011;71590;52.216;13.448;2024-03-02T00:31:21;42.10;;;32.60;;
82028;SDS011;71590;52.216;13.448;2024-03-02T00:33:49;43.13;;;32.83;;
82028;SDS011;71590;52.216;13.448;2024-03-02T00:36:21;45.20;;;31.60;;
82028;SDS011;71590;52.216;13.448;2024-03-02T00:38:50;43.40;;;32.13;;
82028;SDS011;71590;52.216;13.448;2024-03-02T00:41:19;45.23;;;33.90;;
82028;SDS011;71590;52.216;13.448;2024-03-02T00:43:51;45.93;;;33.20;;
82028;SDS011;71590;52.216;13.448;2024-03-02T00:46:20;43.17;;;31.53;;
82028;SDS011;71590;52.216;13.448;2024-03-02T00:48:48;44.57;;;31.63;;
82028;SDS011;71590;52.216;13.448;2024-03-02T00:51:19;38.47;;;29.77;;
82028;SDS011;71590;52.216;13.448;2024-03-02T00:53:46;38.67;;;28.73;;
82028;SDS011;71590;52.216;13.448;2024-03-02T00:56:14;43.63;;;31.47;;
82028;SDS011;71590;52.216;13.448;2024-03-02T00:58:42;39.13;;;31.17;;
82028;SDS011;71590;52.216;13.448;2024-03-02T01:01:09;41.10;;;30.73;;
82028;SDS011;71590;52.216;13.448;2024-03-02T01:03:37;38.83;;;30.43;;
82028;SDS011;71590;52.216;13.448;2024-03-02T01:06:05;40.60;;;30.30;;
82028;SDS011;71590;52.216;13.448;2024-03-02T01:08:35;38.03;;;31.00;;
82028;SDS011;71590;52.216;13.448;2024-03-02T01:11:03;39.53;;;30.07;;
82028;SDS011;71590;52.216;13.448;2024-03-02T01:13:31;40.20;;;29.97;;
82028;SDS011;71590;52.216;13.448;2024-03-02T01:15:58;39.00;;;29.93;;
82028;SDS011;71590;52.216;13.448;2024-03-02T01:18:26;38.93;;;29.67;;
82028;SDS011;71590;52.216;13.448;2024-03-02T01:20:54;45.40;;;34.40;;
82028;SDS011;71590;52.216;13.448;2024-03-02T01:23:22;40.27;;;30.63;;
82028;SDS011;71590;52.216;13.448;2024-03-02T01:25:51;41.90;;;30.70;;
82028;SDS011;71590;52.216;13.448;2024-03-02T01:28:19;40.67;;;31.57;;
82028;SDS011;71590;52.216;13.448;2024-03-02T01:30:48;52.00;;;36.83;;
82028;SDS011;71590;52.216;13.448;2024-03-02T01:33:16;55.07;;;36.67;;
82028;SDS011;71590;52.216;13.448;2024-03-02T01:35:44;41.93;;;32.77;;
82028;SDS011;71590;52.216;13.448;2024-03-02T01:38:11;37.20;;;29.73;;
82028;SDS011;71590;52.216;13.448;2024-03-02T01:40:39;42.27;;;32.53;;
82028;SDS011;71590;52.216;13.448;2024-03-02T01:43:08;44.17;;;33.17;;
82028;SDS011;71590;52.216;13.448;2024-03-02T01:45:35;43.50;;;32.47;;
82028;SDS011;71590;52.216;13.448;2024-03-02T01:48:04;49.60;;;32.97;;
82028;SDS011;71590;52.216;13.448;2024-03-02T01:50:32;40.30;;;30.70;;
82028;SDS011;71590;52.216;13.448;2024-03-02T01:52:59;44.53;;;34.37;;
82028;SDS011;71590;52.216;13.448;2024-03-02T01:55:28;40.20;;;32.07;;
82028;SDS011;71590;52.216;13.448;2024-03-02T01:57:57;43.90;;;33.83;;
82028;SDS011;71590;52.216;13.448;2024-03-02T02:00:26;45.63;;;33.13;;
82028;SDS011;71590;52.216;13.448;2024-03-02T02:02:54;50.30;;;37.63;;
82028;SDS011;71590;52.216;13.448;2024-03-02T02:05:22;46.10;;;35.57;;
82028;SDS011;71590;52.216;13.448;2024-03-02T02:07:49;43.37;;;35.93;;
82028;SDS011;71590;52.216;13.448;2024-03-02T02:10:17;44.80;;;35.57;;
82028;SDS011;71590;52.216;13.448;2024-03-02T02:12:44;50.83;;;38.03;;
82028;SDS011;71590;52.216;13.448;2024-03-02T02:15:28;56.13;;;42.27;;
82028;SDS011;71590;52.216;13.448;2024-03-02T02:17:57;49.37;;;36.73;;
82028;SDS011;71590;52.216;13.448;2024-03-02T02:20:24;48.07;;;36.57;;
82028;SDS011;71590;52.216;13.448;2024-03-02T02:22:55;55.77;;;39.83;;
82028;SDS011;71590;52.216;13.448;2024-03-02T02:25:22;53.53;;;39.50;;
82028;SDS011;71590;52.216;13.448;2024-03-02T02:27:50;49.27;;;37.00;;
82028;SDS011;71590;52.216;13.448;2024-03-02T02:30:21;45.83;;;34.07;;
82028;SDS011;71590;52.216;13.448;2024-03-02T02:32:49;46.73;;;37.87;;
82028;SDS011;71590;52.216;13.448;2024-03-02T02:35:17;49.20;;;37.47;;
82028;SDS011;71590;52.216;13.448;2024-03-02T02:37:44;48.87;;;38.10;;
82028;SDS011;71590;52.216;13.448;2024-03-02T02:40:14;47.97;;;35.17;;
82028;SDS011;71590;52.216;13.448;2024-03-02T02:42:41;57.83;;;41.23;;
82028;SDS011;71590;52.216;13.448;2024-03-02T02:45:09;53.93;;;38.83;;
82028;SDS011;71590;52.216;13.448;2024-03-02T02:47:37;49.63;;;37.40;;
82028;SDS011;71590;52.216;13.448;2024-03-02T02:50:06;50.57;;;37.03;;
82028;SDS011;71590;52.216;13.448;2024-03-02T02:52:34;47.13;;;35.90;;
82028;SDS011;71590;52.216;13.448;2024-03-02T02:55:03;42.90;;;34.77;;
82028;SDS011;71590;52.216;13.448;2024-03-02T02:57:32;46.13;;;36.23;;
82028;SDS011;71590;52.216;13.448;2024-03-02T03:00:02;55.73;;;39.90;;
82028;SDS011;71590;52.216;13.448;2024-03-02T03:02:37;47.17;;;37.50;;
82028;SDS011;71590;52.216;13.448;2024-03-02T03:05:05;52.17;;;39.17;;
82028;SDS011;71590;52.216;13.448;2024-03-02T03:07:33;46.03;;;37.87;;
82028;SDS011;71590;52.216;13.448;2024-03-02T03:10:02;52.40;;;40.50;;
82028;SDS011;71590;52.216;13.448;2024-03-02T03:12:30;51.70;;;40.50;;
82028;SDS011;71590;52.216;13.448;2024-03-02T03:14:59;45.13;;;38.77;;
82028;SDS011;71590;52.216;13.448;2024-03-02T03:17:27;51.80;;;38.77;;
82028;SDS011;71590;52.216;13.448;2024-03-02T03:19:55;44.90;;;36.93;;
82028;SDS011;71590;52.216;13.448;2024-03-02T03:22:22;50.23;;;39.50;;
82028;SDS011;71590;52.216;13.448;2024-03-02T03:24:50;51.43;;;40.23;;
82028;SDS011;71590;52.216;13.448;2024-03-02T03:27:18;50.13;;;38.70;;
82028;SDS011;71590;52.216;13.448;2024-03-02T03:29:46;48.53;;;39.53;;
82028;SDS011;71590;52.216;13.448;2024-03-02T03:32:14;46.77;;;38.23;;
82028;SDS011;71590;52.216;13.448;2024-03-02T03:34:43;48.77;;;39.50;;
82028;SDS011;71590;52.216;13.448;2024-03-02T03:37:10;46.67;;;37.63;;
82028;SDS011;71590;52.216;13.448;2024-03-02T03:39:38;45.00;;;36.43;;
82028;SDS011;71590;52.216;13.448;2024-03-02T03:42:05;44.27;;;36.40;;
82028;SDS011;71590;52.216;13.448;2024-03-02T03:44:33;46.93;;;39.63;;
82028;SDS011;71590;52.216;13.448;2024-03-02T03:47:01;47.60;;;38.50;;
82028;SDS011;71590;52.216;13.448;2024-03-02T03:49:30;48.03;;;36.73;;
82028;SDS011;71590;52.216;13.448;2024-03-02T03:51:57;46.27;;;37.40;;
82028;SDS011;71590;52.216;13.448;2024-03-02T03:54:25;50.30;;;39.67;;
82028;SDS011;71590;52.216;13.448;2024-03-02T03:56:53;46.00;;;36.10;;
82028;SDS011;71590;52.216;13.448;2024-03-02T03:59:20;46.57;;;37.23;;
82028;SDS011;71590;52.216;13.448;2024-03-02T04:01:48;47.67;;;38.80;;
82028;SDS011;71590;52.216;13.448;2024-03-02T04:04:15;50.33;;;39.03;;
82028;SDS011;71590;52.216;13.448;2024-03-02T04:06:44;46.57;;;37.73;;
82028;SDS011;71590;52.216;13.448;2024-03-02T04:09:12;46.17;;;37.53;;
82028;SDS011;71590;52.216;13.448;2024-03-02T04:11:39;48.00;;;37.73;;
82028;SDS011;71590;52.216;13.448;2024-03-02T04:14:07;40.43;;;35.53;;
82028;SDS011;71590;52.216;13.448;2024-03-02T04:16:34;44.47;;;36.70;;
82028;SDS011;71590;52.216;13.448;2024-03-02T04:19:02;48.17;;;38.20;;
82028;SDS011;71590;52.216;13.448;2024-03-02T04:21:30;46.83;;;39.33;;
82028;SDS011;71590;52.216;13.448;2024-03-02T04:23:59;47.20;;;37.83;;
82028;SDS011;71590;52.216;13.448;2024-03-02T04:26:26;44.53;;;37.60;;
82028;SDS011;71590;52.216;13.448;2024-03-02T04:28:54;44.27;;;38.27;;
82028;SDS011;71590;52.216;13.448;2024-03-02T04:31:21;47.73;;;38.97;;
82028;SDS011;71590;52.216;13.448;2024-03-02T04:33:48;48.33;;;39.30;;
82028;SDS011;71590;52.216;13.448;2024-03-02T04:36:16;47.17;;;39.13;;
82028;SDS011;71590;52.216;13.448;2024-03-02T04:38:43;48.13;;;40.47;;
82028;SDS011;71590;52.216;13.448;2024-03-02T04:41:12;46.30;;;39.30;;
82028;SDS011;71590;52.216;13.448;2024-03-02T04:43:40;51.67;;;40.40;;
82028;SDS011;71590;52.216;13.448;2024-03-02T04:46:07;50.73;;;39.63;;
82028;SDS011;71590;52.216;13.448;2024-03-02T04:48:35;47.80;;;38.80;;
82028;SDS011;71590;52.216;13.448;2024-03-02T04:51:02;52.17;;;41.37;;
82028;SDS011;71590;52.216;13.448;2024-03-02T04:53:30;48.30;;;39.50;;
82028;SDS011;71590;52.216;13.448;2024-03-02T04:55:57;50.57;;;40.10;;
82028;SDS011;71590;52.216;13.448;2024-03-02T04:58:55;47.07;;;38.37;;
82028;SDS011;71590;52.216;13.448;2024-03-02T05:01:22;55.00;;;41.37;;
82028;SDS011;71590;52.216;13.448;2024-03-02T05:03:50;58.63;;;43.00;;
82028;SDS011;71590;52.216;13.448;2024-03-02T05:06:18;52.97;;;40.73;;
82028;SDS011;71590;52.216;13.448;2024-03-02T05:08:45;49.87;;;39.17;;
82028;SDS011;71590;52.216;13.448;2024-03-02T05:11:14;50.83;;;39.50;;
82028;SDS011;71590;52.216;13.448;2024-03-02T05:14:16;48.90;;;38.20;;
82028;SDS011;71590;52.216;13.448;2024-03-02T05:16:43;53.67;;;41.67;;
82028;SDS011;71590;52.216;13.448;2024-03-02T05:19:11;50.10;;;40.80;;
82028;SDS011;71590;52.216;13.448;2024-03-02T05:21:38;61.13;;;45.50;;
82028;SDS011;71590;52.216;13.448;2024-03-02T05:24:06;56.57;;;44.10;;
82028;SDS011;71590;52.216;13.448;2024-03-02T05:26:33;50.00;;;40.60;;
82028;SDS011;71590;52.216;13.448;2024-03-02T05:29:01;53.13;;;43.43;;
82028;SDS011;71590;52.216;13.448;2024-03-02T05:31:30;53.37;;;42.60;;
82028;SDS011;71590;52.216;13.448;2024-03-02T05:33:58;65.93;;;48.83;;
82028;SDS011;71590;52.216;13.448;2024-03-02T05:36:26;60.07;;;46.40;;
82028;SDS011;71590;52.216;13.448;2024-03-02T05:38:53;60.07;;;47.00;;
82028;SDS011;71590;52.216;13.448;2024-03-02T05:41:21;59.40;;;45.43;;
82028;SDS011;71590;52.216;13.448;2024-03-02T05:43:48;59.50;;;46.17;;
82028;SDS011;71590;52.216;13.448;2024-03-02T05:46:15;64.87;;;47.53;;
82028;SDS011;71590;52.216;13.448;2024-03-02T05:48:44;54.00;;;44.93;;
82028;SDS011;71590;52.216;13.448;2024-03-02T05:51:12;52.83;;;43.37;;
82028;SDS011;71590;52.216;13.448;2024-03-02T05:53:39;66.87;;;50.30;;
82028;SDS011;71590;52.216;13.448;2024-03-02T05:56:06;60.13;;;44.90;;
82028;SDS011;71590;52.216;13.448;2024-03-02T05:58:34;58.43;;;44.93;;
82028;SDS011;71590;52.216;13.448;2024-03-02T06:01:19;57.20;;;44.37;;
82028;SDS011;71590;52.216;13.448;2024-03-02T06:03:50;57.20;;;43.37;;
82028;SDS011;71590;52.216;13.448;2024-03-02T06:06:17;51.77;;;42.43;;
82028;SDS011;71590;52.216;13.448;2024-03-02T06:08:45;59.43;;;45.30;;
82028;SDS011;71590;52.216;13.448;2024-03-02T06:11:12;54.13;;;42.93;;
82028;SDS011;71590;52.216;13.448;2024-03-02T06:13:40;57.83;;;44.13;;
82028;SDS011;71590;52.216;13.448;2024-03-02T06:16:07;53.10;;;43.20;;
82028;SDS011;71590;52.216;13.448;2024-03-02T06:18:35;54.23;;;42.30;;
82028;SDS011;71590;52.216;13.448;2024-03-02T06:21:04;55.70;;;44.43;;
82028;SDS011;71590;52.216;13.448;2024-03-02T06:23:31;60.10;;;46.37;;
82028;SDS011;71590;52.216;13.448;2024-03-02T06:25:59;62.07;;;44.17;;
82028;SDS011;71590;52.216;13.448;2024-03-02T06:28:26;67.33;;;46.83;;
82028;SDS011;71590;52.216;13.448;2024-03-02T06:30:54;60.03;;;46.80;;
82028;SDS011;71590;52.216;13.448;2024-03-02T06:33:21;61.13;;;46.37;;
82028;SDS011;71590;52.216;13.448;2024-03-02T06:35:49;61.30;;;46.80;;
82028;SDS011;71590;52.216;13.448;2024-03-02T06:38:18;54.73;;;43.50;;
82028;SDS011;71590;52.216;13.448;2024-03-02T06:40:45;56.20;;;45.10;;
82028;SDS011;71590;52.216;13.448;2024-03-02T06:43:13;63.73;;;46.17;;
82028;SDS011;71590;52.216;13.448;2024-03-02T06:45:40;63.80;;;49.43;;
82028;SDS011;71590;52.216;13.448;2024-03-02T06:48:08;69.43;;;51.90;;
82028;SDS011;71590;52.216;13.448;2024-03-02T06:50:35;63.00;;;47.50;;
82028;SDS011;71590;52.216;13.448;2024-03-02T06:53:03;61.67;;;45.97;;
82028;SDS011;71590;52.216;13.448;2024-03-02T06:55:32;65.73;;;48.47;;
82028;SDS011;71590;52.216;13.448;2024-03-02T06:57:59;56.27;;;44.50;;
82028;SDS011;71590;52.216;13.448;2024-03-02T07:00:27;56.57;;;43.90;;
82028;SDS011;71590;52.216;13.448;2024-03-02T07:02:55;60.33;;;45.87;;
82028;SDS011;71590;52.216;13.448;2024-03-02T07:05:23;62.23;;;46.07;;
82028;SDS011;71590;52.216;13.448;2024-03-02T07:07:50;61.27;;;45.60;;
82028;SDS011;71590;52.216;13.448;2024-03-02T07:10:18;56.73;;;43.83;;
82028;SDS011;71590;52.216;13.448;2024-03-02T07:12:46;57.03;;;45.00;;
82028;SDS011;71590;52.216;13.448;2024-03-02T07:15:14;53.83;;;41.70;;
82028;SDS011;71590;52.216;13.448;2024-03-02T07:18:09;60.87;;;46.07;;
82028;SDS011;71590;52.216;13.448;2024-03-02T07:20:36;59.97;;;45.57;;
82028;SDS011;71590;52.216;13.448;2024-03-02T07:23:05;57.50;;;44.27;;
82028;SDS011;71590;52.216;13.448;2024-03-02T07:25:33;51.40;;;40.97;;
82028;SDS011;71590;52.216;13.448;2024-03-02T07:28:05;53.23;;;41.73;;
82028;SDS011;71590;52.216;13.448;2024-03-02T07:30:33;51.43;;;39.93;;
82028;SDS011;71590;52.216;13.448;2024-03-02T07:33:01;59.00;;;43.13;;
82028;SDS011;71590;52.216;13.448;2024-03-02T07:35:28;51.77;;;39.03;;
82028;SDS011;71590;52.216;13.448;2024-03-02T07:37:58;52.77;;;39.70;;
82028;SDS011;71590;52.216;13.448;2024-03-02T07:40:25;52.70;;;40.50;;
82028;SDS011;71590;52.216;13.448;2024-03-02T07:42:52;62.30;;;44.43;;
82028;SDS011;71590;52.216;13.448;2024-03-02T07:45:22;56.47;;;40.77;;
82028;SDS011;71590;52.216;13.448;2024-03-02T07:47:50;62.47;;;41.80;;
82028;SDS011;71590;52.216;13.448;2024-03-02T07:50:18;59.93;;;41.10;;
82028;SDS011;71590;52.216;13.448;2024-03-02T07:52:45;58.27;;;42.27;;
82028;SDS011;71590;52.216;13.448;2024-03-02T07:55:13;57.07;;;39.37;;
82028;SDS011;71590;52.216;13.448;2024-03-02T07:57:40;53.43;;;39.00;;
82028;SDS011;71590;52.216;13.448;2024-03-02T08:00:07;53.37;;;39.03;;
82028;SDS011;71590;52.216;13.448;2024-03-02T08:02:39;53.50;;;39.43;;
82028;SDS011;71590;52.216;13.448;2024-03-02T08:05:08;46.43;;;35.87;;
82028;SDS011;71590;52.216;13.448;2024-03-02T08:07:36;43.83;;;35.17;;
82028;SDS011;71590;52.216;13.448;2024-03-02T08:10:04;42.57;;;33.97;;
82028;SDS011;71590;52.216;13.448;2024-03-02T08:12:31;45.53;;;33.73;;
82028;SDS011;71590;52.216;13.448;2024-03-02T08:14:59;43.47;;;33.57;;
82028;SDS011;71590;52.216;13.448;2024-03-02T08:17:26;43.77;;;33.87;;
82028;SDS011;71590;52.216;13.448;2024-03-02T08:19:55;44.30;;;33.90;;
82028;SDS011;71590;52.216;13.448;2024-03-02T08:22:23;43.13;;;33.57;;
82028;SDS011;71590;52.216;13.448;2024-03-02T08:24:51;42.37;;;32.93;;
82028;SDS011;71590;52.216;13.448;2024-03-02T08:27:18;43.00;;;34.23;;
82028;SDS011;71590;52.216;13.448;2024-03-02T08:29:46;41.40;;;33.97;;
82028;SDS011;71590;52.216;13.448;2024-03-02T08:32:13;41.60;;;34.13;;
82028;SDS011;71590;52.216;13.448;2024-03-02T08:34:43;43.87;;;34.00;;
82028;SDS011;71590;52.216;13.448;2024-03-02T08:37:12;41.90;;;33.17;;
82028;SDS011;71590;52.216;13.448;2024-03-02T08:39:39;42.03;;;34.70;;
82028;SDS011;71590;52.216;13.448;2024-03-02T08:42:07;44.57;;;35.33;;
82028;SDS011;71590;52.216;13.448;2024-03-02T08:44:35;45.10;;;35.67;;
82028;SDS011;71590;52.216;13.448;2024-03-02T08:47:03;44.70;;;35.33;;
82028;SDS011;71590;52.216;13.448;2024-03-02T08:49:30;36.93;;;32.07;;
82028;SDS011;71590;52.216;13.448;2024-03-02T08:51:58;42.53;;;34.03;;
82028;SDS011;71590;52.216;13.448;2024-03-02T08:54:27;41.20;;;34.17;;
82028;SDS011;71590;52.216;13.448;2024-03-02T08:56:55;41.33;;;33.00;;
82028;SDS011;71590;52.216;13.448;2024-03-02T08:59:23;42.93;;;32.50;;
82028;SDS011;71590;52.216;13.448;2024-03-02T09:01:51;42.17;;;33.53;;
82028;SDS011;71590;52.216;13.448;2024-03-02T09:04:18;36.37;;;32.17;;
82028;SDS011;71590;52.216;13.448;2024-03-02T09:06:49;38.03;;;32.00;;
82028;SDS011;71590;52.216;13.448;2024-03-02T09:09:17;38.40;;;31.97;;
82028;SDS011;71590;52.216;13.448;2024-03-02T09:11:46;39.87;;;32.77;;
82028;SDS011;71590;52.216;13.448;2024-03-02T09:14:14;37.47;;;31.23;;
82028;SDS011;71590;52.216;13.448;2024-03-02T09:16:42;36.63;;;30.70;;
82028;SDS011;71590;52.216;13.448;2024-03-02T09:19:09;39.97;;;32.27;;
82028;SDS011;71590;52.216;13.448;2024-03-02T09:21:37;38.53;;;31.27;;
82028;SDS011;71590;52.216;13.448;2024-03-02T09:24:05;40.10;;;31.67;;
82028;SDS011;71590;52.216;13.448;2024-03-02T09:26:33;39.70;;;32.17;;
82028;SDS011;71590;52.216;13.448;2024-03-02T09:29:02;35.83;;;30.27;;
82028;SDS011;71590;52.216;13.448;2024-03-02T09:31:29;40.80;;;31.80;;
82028;SDS011;71590;52.216;13.448;2024-03-02T09:33:56;37.77;;;29.87;;
82028;SDS011;71590;52.216;13.448;2024-03-02T09:36:24;34.20;;;28.67;;
82028;SDS011;71590;52.216;13.448;2024-03-02T09:38:51;38.50;;;30.30;;
82028;SDS011;71590;52.216;13.448;2024-03-02T09:41:19;34.07;;;28.63;;
82028;SDS011;71590;52.216;13.448;2024-03-02T09:43:46;34.17;;;27.73;;
82028;SDS011;71590;52.216;13.448;2024-03-02T09:46:15;31.67;;;26.33;;
82028;SDS011;71590;52.216;13.448;2024-03-02T09:48:43;37.40;;;28.60;;
82028;SDS011;71590;52.216;13.448;2024-03-02T09:51:11;34.10;;;28.47;;
82028;SDS011;71590;52.216;13.448;2024-03-02T09:53:38;35.20;;;28.27;;
82028;SDS011;71590;52.216;13.448;2024-03-02T09:56:06;35.00;;;28.77;;
82028;SDS011;71590;52.216;13.448;2024-03-02T09:58:34;35.40;;;28.90;;
82028;SDS011;71590;52.216;13.448;2024-03-02T10:01:01;30.67;;;25.77;;
82028;SDS011;71590;52.216;13.448;2024-03-02T10:03:30;34.40;;;28.47;;
82028;SDS011;71590;52.216;13.448;2024-03-02T10:08:42;35.00;;;29.37;;
82028;SDS011;71590;52.216;13.448;2024-03-02T10:11:09;34.93;;;28.43;;
82028;SDS011;71590;52.216;13.448;2024-03-02T10:13:37;34.27;;;26.63;;
82028;SDS011;71590;52.216;13.448;2024-03-02T10:16:10;34.83;;;28.20;;
82028;SDS011;71590;52.216;13.448;2024-03-02T10:18:40;30.83;;;24.27;;
82028;SDS011;71590;52.216;13.448;2024-03-02T10:21:12;31.10;;;25.50;;
82028;SDS011;71590;52.216;13.448;2024-03-02T10:23:40;29.17;;;24.23;;
82028;SDS011;71590;52.216;13.448;2024-03-02T10:26:08;31.10;;;26.25;;
82028;SDS011;71590;52.216;13.448;2024-03-02T10:28:45;32.13;;;25.40;;
82028;SDS011;71590;52.216;13.448;2024-03-02T10:31:13;32.27;;;25.40;;
82028;SDS011;71590;52.216;13.448;2024-03-02T10:33:42;31.90;;;25.03;;
82028;SDS011;71590;52.216;13.448;2024-03-02T10:36:09;31.73;;;25.00;;
82028;SDS011;71590;52.216;13.448;2024-03-02T10:38:37;29.03;;;24.43;;
82028;SDS011;71590;52.216;13.448;2024-03-02T10:41:04;29.70;;;24.40;;
82028;SDS011;71590;52.216;13.448;2024-03-02T10:43:32;30.23;;;25.57;;
82028;SDS011;71590;52.216;13.448;2024-03-02T10:45:59;29.77;;;23.33;;
82028;SDS011;71590;52.216;13.448;2024-03-02T10:48:27;28.47;;;23.80;;
82028;SDS011;71590;52.216;13.448;2024-03-02T10:50:57;24.27;;;21.07;;
82028;SDS011;71590;52.216;13.448;2024-03-02T10:53:27;28.57;;;22.40;;
82028;SDS011;71590;52.216;13.448;2024-03-02T10:55:57;28.93;;;21.93;;
82028;SDS011;71590;52.216;13.448;2024-03-02T10:58:32;25.03;;;21.50;;
82028;SDS011;71590;52.216;13.448;2024-03-02T11:01:00;25.27;;;21.37;;
82028;SDS011;71590;52.216;13.448;2024-03-02T11:03:29;26.20;;;22.17;;
82028;SDS011;71590;52.216;13.448;2024-03-02T11:06:02;26.13;;;21.33;;
82028;SDS011;71590;52.216;13.448;2024-03-02T11:08:32;24.90;;;21.00;;
82028;SDS011;71590;52.216;13.448;2024-03-02T11:11:02;22.40;;;20.00;;
82028;SDS011;71590;52.216;13.448;2024-03-02T11:13:33;28.30;;;22.53;;
82028;SDS011;71590;52.216;13.448;2024-03-02T11:16:06;25.30;;;21.33;;
82028;SDS011;71590;52.216;13.448;2024-03-02T11:18:36;25.40;;;20.77;;
82028;SDS011;71590;52.216;13.448;2024-03-02T11:21:05;26.20;;;20.93;;
82028;SDS011;71590;52.216;13.448;2024-03-02T11:23:33;30.07;;;24.20;;
82028;SDS011;71590;52.216;13.448;2024-03-02T11:28:50;26.43;;;21.10;;
82028;SDS011;71590;52.216;13.448;2024-03-02T11:31:18;27.10;;;21.07;;
82028;SDS011;71590;52.216;13.448;2024-03-02T11:33:46;28.33;;;19.30;;
82028;SDS011;71590;52.216;13.448;2024-03-02T11:36:14;22.20;;;18.77;;
82028;SDS011;71590;52.216;13.448;2024-03-02T11:38:43;21.80;;;18.70;;
82028;SDS011;71590;52.216;13.448;2024-03-02T11:41:10;20.57;;;17.67;;
82028;SDS011;71590;52.216;13.448;2024-03-02T11:43:38;24.07;;;19.60;;
82028;SDS011;71590;52.216;13.448;2024-03-02T11:46:06;21.37;;;19.07;;
82028;SDS011;71590;52.216;13.448;2024-03-02T11:48:35;23.23;;;18.40;;
82028;SDS011;71590;52.216;13.448;2024-03-02T11:51:02;21.80;;;18.13;;
82028;SDS011;71590;52.216;13.448;2024-03-02T11:53:31;23.87;;;19.37;;
82028;SDS011;71590;52.216;13.448;2024-03-02T11:56:01;22.87;;;19.10;;
82028;SDS011;71590;52.216;13.448;2024-03-02T11:58:29;22.63;;;19.03;;
82028;SDS011;71590;52.216;13.448;2024-03-02T12:00:57;25.20;;;18.83;;
82028;SDS011;71590;52.216;13.448;2024-03-02T12:03:25;28.30;;;23.83;;
82028;SDS011;71590;52.216;13.448;2024-03-02T12:05:54;26.53;;;22.90;;
82028;SDS011;71590;52.216;13.448;2024-03-02T12:08:21;39.90;;;34.67;;
82028;SDS011;71590;52.216;13.448;2024-03-02T12:10:57;21.60;;;18.37;;
82028;SDS011;71590;52.216;13.448;2024-03-02T12:13:25;20.17;;;18.07;;
82028;SDS011;71590;52.216;13.448;2024-03-02T12:15:53;20.93;;;17.80;;
82028;SDS011;71590;52.216;13.448;2024-03-02T12:18:21;18.30;;;16.27;;
82028;SDS011;71590;52.216;13.448;2024-03-02T12:20:49;20.33;;;17.13;;
82028;SDS011;71590;52.216;13.448;2024-03-02T12:23:18;20.93;;;17.93;;
82028;SDS011;71590;52.216;13.448;2024-03-02T12:25:46;19.80;;;17.07;;
82028;SDS011;71590;52.216;13.448;2024-03-02T12:28:15;17.70;;;15.17;;
82028;SDS011;71590;52.216;13.448;2024-03-02T12:30:42;22.10;;;16.50;;
82028;SDS011;71590;52.216;13.448;2024-03-02T12:33:10;19.73;;;15.47;;
82028;SDS011;71590;52.216;13.448;2024-03-02T12:35:38;18.63;;;14.60;;
82028;SDS011;71590;52.216;13.448;2024-03-02T12:38:06;20.30;;;15.50;;
82028;SDS011;71590;52.216;13.448;2024-03-02T12:40:33;18.93;;;16.33;;
82028;SDS011;71590;52.216;13.448;2024-03-02T12:43:01;18.13;;;14.17;;
82028;SDS011;71590;52.216;13.448;2024-03-02T12:45:30;15.80;;;14.20;;
82028;SDS011;71590;52.216;13.448;2024-03-02T12:47:59;14.10;;;12.60;;
82028;SDS011;71590;52.216;13.448;2024-03-02T12:50:27;16.33;;;13.70;;
82028;SDS011;71590;52.216;13.448;2024-03-02T12:52:54;16.57;;;14.00;;
82028;SDS011;71590;52.216;13.448;2024-03-02T12:55:23;14.57;;;12.80;;
82028;SDS011;71590;52.216;13.448;2024-03-02T12:57:51;15.13;;;13.17;;
82028;SDS011;71590;52.216;13.448;2024-03-02T13:00:20;14.10;;;12.60;;
82028;SDS011;71590;52.216;13.448;2024-03-02T13:02:50;15.87;;;11.27;;
82028;SDS011;71590;52.216;13.448;2024-03-02T13:05:18;14.47;;;12.03;;
82028;SDS011;71590;52.216;13.448;2024-03-02T13:07:47;14.37;;;12.43;;
82028;SDS011;71590;52.216;13.448;2024-03-02T13:10:15;14.83;;;11.93;;
82028;SDS011;71590;52.216;13.448;2024-03-02T13:12:44;14.10;;;12.43;;
82028;SDS011;71590;52.216;13.448;2024-03-02T13:15:12;14.53;;;11.80;;
82028;SDS011;71590;52.216;13.448;2024-03-02T13:17:44;14.40;;;12.90;;
82028;SDS011;71590;52.216;13.448;2024-03-02T13:20:13;14.27;;;12.10;;
82028;SDS011;71590;52.216;13.448;2024-03-02T13:22:41;14.10;;;12.00;;
82028;SDS011;71590;52.216;13.448;2024-03-02T13:25:09;14.80;;;12.40;;
82028;SDS011;71590;52.216;13.448;2024-03-02T13:27:38;17.10;;;14.03;;
82028;SDS011;71590;52.216;13.448;2024-03-02T13:30:06;14.13;;;12.60;;
82028;SDS011;71590;52.216;13.448;2024-03-02T13:32:35;13.57;;;12.03;;
82028;SDS011;71590;52.216;13.448;2024-03-02T13:35:03;14.83;;;12.47;;
82028;SDS011;71590;52.216;13.448;2024-03-02T13:37:32;14.93;;;12.97;;
82028;SDS011;71590;52.216;13.448;2024-03-02T13:40:00;13.93;;;11.77;;
82028;SDS011;71590;52.216;13.448;2024-03-02T13:42:27;14.57;;;12.07;;
82028;SDS011;71590;52.216;13.448;2024-03-02T13:44:55;13.27;;;11.70;;
82028;SDS011;71590;52.216;13.448;2024-03-02T13:47:22;13.73;;;11.60;;
82028;SDS011;71590;52.216;13.448;2024-03-02T13:49:50;13.13;;;11.73;;
82028;SDS011;71590;52.216;13.448;2024-03-02T13:52:17;12.87;;;10.97;;
82028;SDS011;71590;52.216;13.448;2024-03-02T13:54:47;16.27;;;12.57;;
82028;SDS011;71590;52.216;13.448;2024-03-02T13:57:15;15.93;;;12.10;;
82028;SDS011;71590;52.216;13.448;2024-03-02T13:59:49;12.70;;;11.40;;
82028;SDS011;71590;52.216;13.448;2024-03-02T14:02:17;14.57;;;12.23;;
82028;SDS011;71590;52.216;13.448;2024-03-02T14:04:45;14.40;;;12.20;;
82028;SDS011;71590;52.216;13.448;2024-03-02T14:07:12;13.47;;;11.67;;
82028;SDS011;71590;52.216;13.448;2024-03-02T14:09:40;13.53;;;12.23;;
82028;SDS011;71590;52.216;13.448;2024-03-02T14:12:10;14.43;;;12.63;;
82028;SDS011;71590;52.216;13.448;2024-03-02T14:14:39;16.37;;;13.47;;
82028;SDS011;71590;52.216;13.448;2024-03-02T14:17:07;18.57;;;14.57;;
82028;SDS011;71590;52.216;13.448;2024-03-02T14:19:40;16.50;;;13.97;;
82028;SDS011;71590;52.216;13.448;2024-03-02T14:22:08;15.17;;;13.67;;